Aviation Digital Data Service (ADDS)

Output produced by METARs form (0008 UTC 23 March 2019)
found at http://www.aviationweather.gov/metar/data/
 
Forecast for: VOPB (PORT BLAIR , IN)
Text: TAF VOPB 222300Z 2300/2309 08010KT 6000 FEW018 SCT200
Forecast period: 0000 to 0900 UTC 23 March 2019
Forecast type: FROM: standard forecast or significant change
Winds: from the E (80 degrees) at 12 MPH (10 knots; 5.1 m/s)
Visibility: 4 miles (6 km)
Ceiling: at least 12,000 feet AGL
Clouds: few clouds at 1800 feet AGL
scattered clouds at 20000 feet AGL
Weather: no significant weather forecast for this period
Text: TEMPO 2300/2302 VRB02KT 3500 BR
Forecast period: 0000 to 0200 UTC 23 March 2019
Forecast type: TEMPORARY: The following changes expected for less than half the time period
Winds: variable direction winds at 2 MPH (2 knots; 1.0 m/s)
Visibility: 2.17 miles (3.49 km)
Ceiling: unknown
Clouds: missing
Weather: BR  (mist)